createdAt,value
2023-01-08T00:04:38.864Z,-7.99
2023-01-08T00:19:42.173Z,-8.01
2023-01-08T00:34:44.112Z,-8.32
2023-01-08T00:49:46.549Z,-8.22
2023-01-08T01:04:48.337Z,-7.99
2023-01-08T01:19:52.779Z,-7.47
2023-01-08T01:34:54.601Z,-7.40
2023-01-08T01:50:08.152Z,-7.42
2023-01-08T02:05:10.136Z,-7.80
2023-01-08T02:20:19.351Z,-7.94
2023-01-08T02:35:21.296Z,-7.88
2023-01-08T02:50:23.452Z,-8.17
2023-01-08T03:05:27.883Z,-7.96
2023-01-08T03:20:31.425Z,-8.14
2023-01-08T03:35:36.671Z,-8.08
2023-01-08T03:50:39.066Z,-8.74
2023-01-08T04:05:40.860Z,-8.82
2023-01-08T04:20:46.718Z,-8.82
2023-01-08T04:35:48.580Z,-8.22
2023-01-08T04:50:51.931Z,-8.18
2023-01-08T05:05:53.807Z,-8.42
2023-01-08T05:20:55.812Z,-8.50
2023-01-08T05:35:57.691Z,-8.28
2023-01-08T05:51:00.028Z,-8.74
2023-01-08T06:06:03.479Z,-8.58
2023-01-08T06:21:05.678Z,-7.80
2023-01-08T06:36:07.906Z,-6.23
2023-01-08T06:51:10.210Z,-6.60
2023-01-08T07:06:16.850Z,-7.18
2023-01-08T07:21:21.166Z,-7.34
2023-01-08T07:36:24.479Z,-7.03
2023-01-08T07:51:27.078Z,-1.66
2023-01-08T08:06:31.613Z,0.79
2023-01-08T08:21:33.885Z,1.68
2023-01-08T08:36:35.702Z,1.22
2023-01-08T08:51:38.333Z,1.54
2023-01-08T09:06:40.255Z,1.32
2023-01-08T09:21:45.293Z,1.62
2023-01-08T09:36:47.210Z,1.83
2023-01-08T09:51:49.931Z,1.77
2023-01-08T10:07:02.560Z,1.32
2023-01-08T10:22:13.506Z,1.00
2023-01-08T10:37:28.889Z,2.08
2023-01-08T10:52:33.593Z,2.75
2023-01-08T11:07:35.627Z,2.29
2023-01-08T11:22:37.541Z,1.21
2023-01-08T11:37:46.773Z,0.77
2023-01-08T11:53:12.866Z,1.09
2023-01-08T12:08:20.579Z,1.56
2023-01-08T12:23:30.495Z,2.23
2023-01-08T12:38:40.495Z,2.04
2023-01-08T12:53:58.802Z,-0.29
2023-01-08T13:09:01.791Z,-3.29
2023-01-08T16:36:54.413Z,-6.68
2023-01-08T16:51:56.266Z,-6.92
2023-01-08T17:06:58.764Z,-7.01
2023-01-08T17:22:00.564Z,-7.25
2023-01-08T17:37:03.017Z,-7.62
2023-01-08T17:52:04.881Z,-7.93
2023-01-08T18:07:06.771Z,-8.18
2023-01-08T18:22:08.689Z,-8.27
2023-01-08T18:37:10.638Z,-8.39
2023-01-08T18:52:14.164Z,-8.52
2023-01-08T19:07:17.241Z,-8.39
2023-01-08T19:43:49.746Z,-8.25
2023-01-08T19:58:51.630Z,-8.44
2023-01-08T20:13:55.691Z,-8.48
2023-01-08T20:28:58.438Z,-8.58
2023-01-08T20:44:07.095Z,-8.15
2023-01-08T20:59:09.222Z,-8.26
2023-01-08T21:14:11.551Z,-8.67
2023-01-08T21:29:13.444Z,-8.85
2023-01-08T21:44:39.885Z,-8.82
2023-01-08T21:59:41.853Z,-8.95
2023-01-08T22:14:44.621Z,-9.19
2023-01-08T22:29:47.912Z,-9.27
2023-01-08T22:44:50.491Z,-9.48
2023-01-08T22:59:52.309Z,-9.53
2023-01-08T23:14:54.110Z,-9.80
2023-01-08T23:29:55.934Z,-9.99
2023-01-08T23:44:58.684Z,-10.18
